Logo AVAMET
Benvolgut visitant, si us plau, ingressa Recuperar contrasenya
AVAMET paisatges

Bunyol Camp de Futbol

Dades diàries. Acumulats / Últims 30 dies disponibles

Data Temperatura (°C) Humitat rel. (%) Pressió rel. (hPa) Vent (km/h) Precipitació
Mínima Mitjana Màxima Amplitud
tèrmica
Mínima Mitjana Màxima Mínima Mitjana Màxima Predom. Mitjana Ràfega
màxima
Total
(mm)
Índex-n
Mínima Mitjana Màxima Mínima Mitjana Màxima n
0 a 1
P0 max
mm 5'
Dades mensuals acumulades fins l'últim dia disponible
08/2020 19,6 22,0 24,0 26,0 24,3 31,3 41,8 22,2 7 77 100 973 1.011 1.022   3,9 37,0 0,0
Dades anuals acumulades fins l'últim dia disponible
2020 2,3 11,4 24,0 15,7 6,7 21,2 41,8 39,5 7 77 100 964 1.020 1.034   6,8 89,5 214,4
Últims 30 dies disponibles
07-08-2020 19,6     26,2     33,7 14,1 36 55 79 1.020 1.021 1.022 S 4,4 29,8 0,0
06-08-2020 20,8     25,4     32,1 11,3 48 80 100 1.018 1.019 1.021 E 3,8 35,5 0,0
05-08-2020 22,9     22,9     24,3 1,4 100 100 100 973 973 973 ENE 0,7 13,0 0,0
03-08-2020 23,2     23,8     24,3 1,1 94 99 100 1.015 1.016 1.017 NE 3,3 13,0 0,0
02-08-2020 21,3     26,4     31,7 10,4 62 79 100 1.016 1.017 1.019 SE 5,3 32,0 0,0
01-08-2020 24,0     31,1     41,8 17,8 7 47 85 1.015 1.018 1.020 SSO 6,0 37,0 0,0
31-07-2020 22,0     28,4     35,8 13,8 34 58 90 1.017 1.018 1.020 SSE 4,4 38,9 0,0
30-07-2020 20,3     26,3     32,9 12,6 36 67 100 1.018 1.019 1.020 SSE 4,4 33,5 0,0
29-07-2020 20,5     25,1     30,8 10,3 58 84 100 1.018 1.019 1.021 SE 5,4 28,3 0,0
28-07-2020 21,5     26,6     32,4 10,9 45 63 88 974 1.018 1.020 SE 4,1 22,2 0,0
27-07-2020 19,5     26,6     34,7 15,2 42 68 96 1.017 1.019 1.021 SSE 4,2 28,3 0,0
26-07-2020 19,3     25,0     31,3 12,0 62 84 100 1.017 1.018 1.020 SE 4,1 24,1 0,0
25-07-2020 19,6     24,7     30,8 11,2 61 73 91 1.016 1.018 1.019 SE 3,9 20,9 0,0
24-07-2020 18,3     26,5     30,8 12,5 46 68 84 1.016 1.017 1.018 NE 7,2 20,4 0,0
30-06-2020 18,3     23,7     29,7 11,4 66 87 100 1.015 1.017 1.019 SE 3,2 27,4 0,0
29-06-2020 19,0     24,2     30,7 11,7 56 78 100 1.017 1.019 1.020 SE 3,9 22,2 0,0
28-06-2020 18,5     24,0     30,1 11,6 59 73 100 1.019 1.020 1.021 SE 3,8 21,3 0,0
27-06-2020 17,5     26,7     33,4 15,9 10 64 87 972 1.017 1.019 ENE 7,1 28,1 0,0
26-06-2020 17,5     22,3     29,8 12,3 40 73 90 1.017 1.018 1.020 S 3,4 24,8 0,0
25-06-2020 17,5     23,9     30,1 12,6 38 62 97 1.017 1.019 1.021 SSE 4,7 41,1 0,0
24-06-2020 17,2     22,7     30,6 13,4 44 74 90 1.019 1.020 1.021 SSE 3,1 25,5 0,0
23-06-2020 16,9     22,9     29,2 12,3 56 79 100 1.019 1.021 1.023 SE 4,8 30,9 0,0
22-06-2020 16,8     25,7     30,1 13,3 44 61 84 979 1.023 1.025 E 6,2 24,4 0,0
20-06-2020 16,8         -16,8 87 99 100 1.022 1.022 1.023 OSO 4,1 17,2 0,0
19-06-2020 17,6     20,4     25,9 8,3 73 94 100 1.019 1.020 1.023 ENE 5,5 29,0 0,0
18-06-2020 17,4     19,8     24,1 6,7 73 93 100 1.016 1.017 1.019 E 5,7 27,0 0,0
17-06-2020 15,3     19,3     24,0 8,7 67 92 100 1.016 1.018 1.020 SE 7,2 23,7 0,0
16-06-2020 16,8     21,3     27,8 11,0 36 79 100 975 1.019 1.021 E 6,5 36,3 0,0
15-06-2020 16,8     18,0     19,0 2,2 51 64 76 1.020 1.021 1.021 O 10,2 35,5 0,0
14-06-2020 16,4     22,3     30,0 13,6 7 41 72 1.018 1.019 1.021 SSO 7,1 40,7 0,0
Últims 13 mesos disponibles
06/2020 12,1 16,2 19,0 21,1 19,0 27,7 33,4 21,3 41 71 99 1.008 1.017 1.023 SE 6,3 57,5 32,9
05/2020 11,1 14,6 18,7 19,3 17,0 25,1 30,8 19,7 51 73 95 1.008 1.019 1.029 S 6,5 64,0 14,8
04/2020 5,7 10,4 14,7 13,9 13,2 19,1 23,4 17,7 58 85 100 1.008 1.017 1.026 SSE 5,4 60,3 50,8
03/2020 2,4 8,7 14,4 12,1 7,5 16,5 26,6 24,2 46 79 100 1.008 1.018 1.027 OSO 8,6 89,5 80,4
02/2020 4,1 8,5 13,7 13,3 8,3 19,7 27,2 23,1 35 73 100 1.015 1.025 1.032 SO 8,3 58,3
01/2020 2,3 6,1 13,1 9,6 6,7 14,9 20,5 18,2 47 80 100 1.017 1.025 1.032 OSO 7,1 60,3
12/2019 3,3 8,6 15,1 11,7 10,4 16,2 23,3 20,0 59 81 100 1.004 1.019 1.032 SO 11,4 89,9 76,2
11/2019 3,7 9,6 18,2 12,8 13,4 17,4 26,1 22,4 46 70 99 1.001 1.012 1.019 OSO 15,2 81,2 7,2
10/2019 9,6 14,3 18,2 18,5 14,9 24,8 32,1 22,5 43 74 97 1.009 1.018 1.023 OSO 8,5 56,8 19,6
09/2019 13,3 17,9 20,4 21,9 18,4 27,3 34,2 20,9 27 78 98 1.013 1.020 1.026 SSE 6,9 45,7 143,4
08/2019 16,2 20,0 25,0 24,9 23,3 31,4 38,4 22,2 26 73 95 1.014 1.019 1.023 SE 7,0 45,0 16,7
07/2019 18,5 20,3 23,1 25,6 24,9 31,5 36,9 18,4 37 65 92 1.010 1.017 1.024 SSE 8,4 52,9 3,0
06/2019 9,7 16,0 20,8 21,6 20,6 27,7 37,2 27,5 25 61 92 1.011 1.018 1.023 SSE 7,9 69,4 1,0
Tots els anys disponibles
2019 1,1 12,3 25,0 16,8 10,4 22,6 38,4 37,3 25 68 100 997 1.018 1.033 OSO 9,3 89,9
2018 0,1 13,3 23,6 17,5 8,3 23,0 37,4 37,3 24 72 100 997 1.017 1.030 OSO 8,7 78,1
2017 -1,4 9,5 24,4 12,3 0,6 15,6 29,4 30,8 19 60 97 501 958 1.015 50,0
2016 0,9 8,6 27,3 13,1 7,7 17,5 38,1 37,2 20 58 93 981 1.009 1.027 99,0
2015 5,7 15,4 26,9 20,4 7,1 25,4 41,2 35,5 2 63 98 -49 957 1.066 71,0
2014 3,2 13,6 25,4 18,6 8,3 23,6 38,7 35,5 19 58 94 976 1.007 1.019 105,0
Temperatura (°C)
Humitat relativa (%)
Velocitat del vent i ràfega màxima (km/h)
Direcció del vent (°)
Pressió (hPa)
Precipitació (mm)
Nota sobre les dades: s'avisa a l'usuari de la provisionalitat i no oficialitat d'aquestes dades
Logo AVAMET blanc
Web allotjada a Sollutia
Llicència de Creative CommonsLa web d'AVAMET i els seus continguts estan subjectes a una llicència de
Reconeixement - No Comercial - Compartir igual
Últimes estacions: Torremocha del Jiloca (Limítrofe/Soci), Orihuela - Arneva (MeteOrihuela), Enguera - Antolí (Soci), Vilamarxant - La Pedrera (Soci), Càlig (Ajuntament Soci), Quesa - Hotel La Rocha (Soci), Agres - Les Eres (Soci) - - -